Amsterdam, Netherlands
Current Conditions -  °F | °C
As of 11:55 PM on Friday 28 Nov 2014 (Local Time) from EHAM Reporting Station
Clear Clear  
Wind Chill: 31°   Ceiling: Unl
Heat Index: 39°   Visibility: 6mi
Dew Point: 34°   Wind: 14mph
Humidity: 81%   Direction: 90°E
Pressure: 29.88"   Gusts: NA
Location:  52.35°N, 4.9°E
Report Text: EHAM 282255Z 09012KT 060V120 9000 NSC 04/01 Q1012 NOSIG
Loading
Personal Weather Stations






























Interactive Weather Map New forecast layout! Learn more

10-Day Weather Forecast

Advertisements
Track Severe Weather on mobile